sensor_id;sensor_type;location;lat;lon;timestamp;pressure;altitude;pressure_sealevel;temperature;humidity
73600;BME280;61877;48.246;9.220;2023-02-15T00:01:42;95370.34;;;-0.70;92.95
73600;BME280;61877;48.246;9.220;2023-02-15T00:04:09;95363.69;;;-0.73;92.74
73600;BME280;61877;48.246;9.220;2023-02-15T00:06:35;95356.59;;;-0.72;92.15
73600;BME280;61877;48.246;9.220;2023-02-15T00:09:02;95351.03;;;-0.87;92.99
73600;BME280;61877;48.246;9.220;2023-02-15T00:11:28;95350.94;;;-0.92;92.67
73600;BME280;61877;48.246;9.220;2023-02-15T00:13:54;95349.13;;;-0.92;92.80
73600;BME280;61877;48.246;9.220;2023-02-15T00:16:22;95348.47;;;-0.99;92.80
73600;BME280;61877;48.246;9.220;2023-02-15T00:18:52;95352.00;;;-0.93;92.84
73600;BME280;61877;48.246;9.220;2023-02-15T00:21:18;95348.22;;;-0.97;92.72
73600;BME280;61877;48.246;9.220;2023-02-15T00:23:43;95344.81;;;-0.98;93.02
73600;BME280;61877;48.246;9.220;2023-02-15T00:26:12;95341.03;;;-1.02;92.27
73600;BME280;61877;48.246;9.220;2023-02-15T00:28:41;95346.91;;;-1.11;92.91
73600;BME280;61877;48.246;9.220;2023-02-15T00:31:08;95343.91;;;-1.03;92.02
73600;BME280;61877;48.246;9.220;2023-02-15T00:33:36;95342.28;;;-1.04;92.10
73600;BME280;61877;48.246;9.220;2023-02-15T00:36:03;95347.69;;;-1.11;92.94
73600;BME280;61877;48.246;9.220;2023-02-15T00:38:30;95345.50;;;-1.02;92.91
73600;BME280;61877;48.246;9.220;2023-02-15T00:40:57;95341.16;;;-1.08;92.08
73600;BME280;61877;48.246;9.220;2023-02-15T00:43:24;95334.31;;;-1.21;92.39
73600;BME280;61877;48.246;9.220;2023-02-15T00:45:50;95340.78;;;-1.28;92.67
73600;BME280;61877;48.246;9.220;2023-02-15T00:48:16;95331.38;;;-1.24;93.04
73600;BME280;61877;48.246;9.220;2023-02-15T00:50:45;95332.78;;;-1.34;92.94
73600;BME280;61877;48.246;9.220;2023-02-15T00:53:11;95334.25;;;-1.38;92.50
73600;BME280;61877;48.246;9.220;2023-02-15T00:55:37;95327.88;;;-1.42;92.46
73600;BME280;61877;48.246;9.220;2023-02-15T00:58:03;95325.25;;;-1.42;93.20
73600;BME280;61877;48.246;9.220;2023-02-15T01:00:29;95328.81;;;-1.48;93.03
73600;BME280;61877;48.246;9.220;2023-02-15T01:02:55;95327.31;;;-1.44;93.29
73600;BME280;61877;48.246;9.220;2023-02-15T01:05:21;95327.97;;;-1.37;94.22
73600;BME280;61877;48.246;9.220;2023-02-15T01:07:48;95323.06;;;-1.33;92.84
73600;BME280;61877;48.246;9.220;2023-02-15T01:10:14;95326.94;;;-1.36;92.50
73600;BME280;61877;48.246;9.220;2023-02-15T01:12:40;95323.97;;;-1.39;92.04
73600;BME280;61877;48.246;9.220;2023-02-15T01:15:07;95323.66;;;-1.54;91.89
73600;BME280;61877;48.246;9.220;2023-02-15T01:17:33;95315.00;;;-1.66;92.34
73600;BME280;61877;48.246;9.220;2023-02-15T01:20:00;95312.03;;;-1.70;92.20
73600;BME280;61877;48.246;9.220;2023-02-15T01:22:26;95313.16;;;-1.66;92.86
73600;BME280;61877;48.246;9.220;2023-02-15T01:24:54;95309.84;;;-1.61;91.02
73600;BME280;61877;48.246;9.220;2023-02-15T01:27:19;95315.00;;;-1.55;91.25
73600;BME280;61877;48.246;9.220;2023-02-15T01:29:45;95317.63;;;-1.55;89.90
73600;BME280;61877;48.246;9.220;2023-02-15T01:32:13;95316.94;;;-1.62;89.93
73600;BME280;61877;48.246;9.220;2023-02-15T01:34:39;95313.16;;;-1.66;90.72
73600;BME280;61877;48.246;9.220;2023-02-15T01:37:05;95316.94;;;-1.62;89.14
73600;BME280;61877;48.246;9.220;2023-02-15T01:39:31;95322.56;;;-1.70;89.59
73600;BME280;61877;48.246;9.220;2023-02-15T01:41:58;95316.97;;;-1.85;91.13
73600;BME280;61877;48.246;9.220;2023-02-15T01:44:47;95322.38;;;-2.03;91.07
73600;BME280;61877;48.246;9.220;2023-02-15T01:47:16;95319.28;;;-2.11;91.36
73600;BME280;61877;48.246;9.220;2023-02-15T01:49:46;95318.69;;;-2.13;92.19
73600;BME280;61877;48.246;9.220;2023-02-15T01:52:15;95309.22;;;-2.14;93.60
73600;BME280;61877;48.246;9.220;2023-02-15T01:54:43;95308.66;;;-2.05;92.51
73600;BME280;61877;48.246;9.220;2023-02-15T01:57:13;95302.91;;;-2.02;91.84
73600;BME280;61877;48.246;9.220;2023-02-15T01:59:44;95304.31;;;-2.11;91.92
73600;BME280;61877;48.246;9.220;2023-02-15T02:02:13;95310.81;;;-2.13;93.51
73600;BME280;61877;48.246;9.220;2023-02-15T02:04:45;95304.53;;;-2.24;91.54
73600;BME280;61877;48.246;9.220;2023-02-15T02:07:14;95305.44;;;-2.30;92.42
73600;BME280;61877;48.246;9.220;2023-02-15T02:09:41;95303.50;;;-2.34;92.95
73600;BME280;61877;48.246;9.220;2023-02-15T02:12:08;95300.19;;;-2.07;91.15
73600;BME280;61877;48.246;9.220;2023-02-15T02:14:36;95308.66;;;-2.05;90.50
73600;BME280;61877;48.246;9.220;2023-02-15T02:17:09;95291.72;;;-2.09;90.09
73600;BME280;61877;48.246;9.220;2023-02-15T02:20:08;95298.47;;;-2.24;89.26
73600;BME280;61877;48.246;9.220;2023-02-15T02:23:05;95291.28;;;-2.29;90.67
73600;BME280;61877;48.246;9.220;2023-02-15T02:25:55;95293.00;;;-2.46;91.23
73600;BME280;61877;48.246;9.220;2023-02-15T02:28:48;95294.00;;;-2.47;92.21
73600;BME280;61877;48.246;9.220;2023-02-15T02:31:37;95288.84;;;-2.42;92.38
73600;BME280;61877;48.246;9.220;2023-02-15T02:34:13;95289.91;;;-2.43;92.35
73600;BME280;61877;48.246;9.220;2023-02-15T02:36:49;95283.38;;;-2.52;91.67
73600;BME280;61877;48.246;9.220;2023-02-15T02:39:24;95288.41;;;-2.62;93.18
73600;BME280;61877;48.246;9.220;2023-02-15T02:42:00;95288.19;;;-2.60;93.39
73600;BME280;61877;48.246;9.220;2023-02-15T02:44:31;95285.22;;;-2.52;92.81
73600;BME280;61877;48.246;9.220;2023-02-15T02:47:02;95287.63;;;-2.39;92.06
73600;BME280;61877;48.246;9.220;2023-02-15T02:49:34;95289.09;;;-2.43;92.23
73600;BME280;61877;48.246;9.220;2023-02-15T02:52:01;95285.34;;;-2.36;91.79
73600;BME280;61877;48.246;9.220;2023-02-15T02:54:28;95289.44;;;-2.40;90.18
73600;BME280;61877;48.246;9.220;2023-02-15T02:56:56;95295.72;;;-2.64;91.90
73600;BME280;61877;48.246;9.220;2023-02-15T02:59:27;95288.59;;;-2.64;92.98
73600;BME280;61877;48.246;9.220;2023-02-15T03:01:57;95291.03;;;-2.62;93.67
73600;BME280;61877;48.246;9.220;2023-02-15T03:04:30;95287.84;;;-2.64;93.82
73600;BME280;61877;48.246;9.220;2023-02-15T03:07:01;95290.81;;;-2.60;94.04
73600;BME280;61877;48.246;9.220;2023-02-15T03:09:30;95285.78;;;-2.50;92.37
73600;BME280;61877;48.246;9.220;2023-02-15T03:12:00;95290.13;;;-2.56;92.22
73600;BME280;61877;48.246;9.220;2023-02-15T03:14:26;95287.13;;;-2.71;92.80
73600;BME280;61877;48.246;9.220;2023-02-15T03:16:52;95296.03;;;-2.72;92.59
73600;BME280;61877;48.246;9.220;2023-02-15T03:19:22;95289.28;;;-2.80;92.49
73600;BME280;61877;48.246;9.220;2023-02-15T03:21:50;95281.63;;;-2.81;93.23
73600;BME280;61877;48.246;9.220;2023-02-15T03:24:20;95283.31;;;-2.87;93.02
73600;BME280;61877;48.246;9.220;2023-02-15T03:26:50;95282.19;;;-2.91;92.99
73600;BME280;61877;48.246;9.220;2023-02-15T03:29:17;95282.97;;;-2.90;93.41
73600;BME280;61877;48.246;9.220;2023-02-15T03:31:46;95281.38;;;-2.91;93.18
73600;BME280;61877;48.246;9.220;2023-02-15T03:34:15;95281.97;;;-2.89;92.99
73600;BME280;61877;48.246;9.220;2023-02-15T03:36:46;95281.16;;;-2.78;92.02
73600;BME280;61877;48.246;9.220;2023-02-15T03:39:19;95283.16;;;-3.03;90.69
73600;BME280;61877;48.246;9.220;2023-02-15T03:41:52;95279.94;;;-3.17;91.32
73600;BME280;61877;48.246;9.220;2023-02-15T03:44:27;95283.47;;;-3.11;91.10
73600;BME280;61877;48.246;9.220;2023-02-15T03:47:00;95277.19;;;-3.22;90.88
73600;BME280;61877;48.246;9.220;2023-02-15T03:49:36;95275.97;;;-3.08;91.39
73600;BME280;61877;48.246;9.220;2023-02-15T03:52:05;95274.16;;;-3.07;91.14
73600;BME280;61877;48.246;9.220;2023-02-15T03:54:34;95281.00;;;-3.06;91.12
73600;BME280;61877;48.246;9.220;2023-02-15T03:57:01;95275.75;;;-3.06;91.00
73600;BME280;61877;48.246;9.220;2023-02-15T03:59:28;95272.19;;;-3.12;90.74
73600;BME280;61877;48.246;9.220;2023-02-15T04:02:03;95274.03;;;-3.12;92.06
73600;BME280;61877;48.246;9.220;2023-02-15T04:04:34;95265.81;;;-3.04;91.75
73600;BME280;61877;48.246;9.220;2023-02-15T04:07:02;95269.13;;;-3.09;92.20
73600;BME280;61877;48.246;9.220;2023-02-15T04:09:28;95277.56;;;-3.07;91.29
73600;BME280;61877;48.246;9.220;2023-02-15T04:11:55;95274.47;;;-3.15;91.34
73600;BME280;61877;48.246;9.220;2023-02-15T04:14:21;95271.22;;;-3.29;90.65
73600;BME280;61877;48.246;9.220;2023-02-15T04:16:46;95272.41;;;-3.43;92.39
73600;BME280;61877;48.246;9.220;2023-02-15T04:19:12;95274.53;;;-3.51;92.75
73600;BME280;61877;48.246;9.220;2023-02-15T04:21:37;95279.50;;;-3.61;93.49
73600;BME280;61877;48.246;9.220;2023-02-15T04:24:03;95274.13;;;-3.48;93.90
73600;BME280;61877;48.246;9.220;2023-02-15T04:26:29;95277.88;;;-3.44;93.75
73600;BME280;61877;48.246;9.220;2023-02-15T04:28:57;95282.31;;;-3.27;93.13
73600;BME280;61877;48.246;9.220;2023-02-15T04:31:22;95282.00;;;-3.19;92.13
73600;BME280;61877;48.246;9.220;2023-02-15T04:33:48;95280.69;;;-3.28;91.92
73600;BME280;61877;48.246;9.220;2023-02-15T04:36:14;95281.00;;;-3.36;92.05
73600;BME280;61877;48.246;9.220;2023-02-15T04:38:40;95276.44;;;-3.40;92.12
73600;BME280;61877;48.246;9.220;2023-02-15T04:41:06;95267.63;;;-3.46;91.63
73600;BME280;61877;48.246;9.220;2023-02-15T04:43:33;95273.84;;;-3.58;91.86
73600;BME280;61877;48.246;9.220;2023-02-15T04:46:00;95276.19;;;-3.68;92.47
73600;BME280;61877;48.246;9.220;2023-02-15T04:48:26;95272.84;;;-3.75;93.07
73600;BME280;61877;48.246;9.220;2023-02-15T04:50:53;95274.44;;;-3.74;92.26
73600;BME280;61877;48.246;9.220;2023-02-15T04:53:19;95274.16;;;-3.84;92.06
73600;BME280;61877;48.246;9.220;2023-02-15T04:55:45;95278.31;;;-3.95;92.57
73600;BME280;61877;48.246;9.220;2023-02-15T04:58:11;95277.81;;;-4.04;93.18
73600;BME280;61877;48.246;9.220;2023-02-15T05:00:37;95272.03;;;-4.12;92.85
73600;BME280;61877;48.246;9.220;2023-02-15T05:03:04;95265.28;;;-4.20;92.50
73600;BME280;61877;48.246;9.220;2023-02-15T05:05:30;95272.41;;;-4.27;93.04
73600;BME280;61877;48.246;9.220;2023-02-15T05:07:55;95268.16;;;-4.28;93.23
73600;BME280;61877;48.246;9.220;2023-02-15T05:10:21;95277.28;;;-4.30;92.88
73600;BME280;61877;48.246;9.220;2023-02-15T05:12:46;95275.47;;;-4.30;92.64
73600;BME280;61877;48.246;9.220;2023-02-15T05:15:16;95259.75;;;-4.30;92.56
73600;BME280;61877;48.246;9.220;2023-02-15T05:17:43;95275.31;;;-4.35;92.47
73600;BME280;61877;48.246;9.220;2023-02-15T05:20:11;95271.06;;;-4.36;92.47
73600;BME280;61877;48.246;9.220;2023-02-15T05:22:37;95266.66;;;-4.35;92.28
73600;BME280;61877;48.246;9.220;2023-02-15T05:25:03;95257.81;;;-4.41;92.14
73600;BME280;61877;48.246;9.220;2023-02-15T05:27:31;95269.56;;;-4.43;92.46
73600;BME280;61877;48.246;9.220;2023-02-15T05:29:57;95263.72;;;-4.45;92.71
73600;BME280;61877;48.246;9.220;2023-02-15T05:32:23;95269.19;;;-4.47;92.37
73600;BME280;61877;48.246;9.220;2023-02-15T05:34:48;95271.63;;;-4.52;91.91
73600;BME280;61877;48.246;9.220;2023-02-15T05:37:16;95271.25;;;-4.55;92.14
73600;BME280;61877;48.246;9.220;2023-02-15T05:39:41;95269.91;;;-4.58;92.75
73600;BME280;61877;48.246;9.220;2023-02-15T05:42:07;95272.91;;;-4.61;92.39
73600;BME280;61877;48.246;9.220;2023-02-15T05:44:33;95269.75;;;-4.63;92.71
73600;BME280;61877;48.246;9.220;2023-02-15T05:46:59;95278.00;;;-4.66;92.69
73600;BME280;61877;48.246;9.220;2023-02-15T05:49:24;95280.06;;;-4.68;92.50
73600;BME280;61877;48.246;9.220;2023-02-15T05:51:50;95282.06;;;-4.70;92.34
73600;BME280;61877;48.246;9.220;2023-02-15T05:54:17;95279.06;;;-4.73;92.28
73600;BME280;61877;48.246;9.220;2023-02-15T05:56:42;95279.06;;;-4.73;92.54
73600;BME280;61877;48.246;9.220;2023-02-15T05:59:08;95275.88;;;-4.75;92.19
73600;BME280;61877;48.246;9.220;2023-02-15T06:01:34;95275.44;;;-4.72;92.52
73600;BME280;61877;48.246;9.220;2023-02-15T06:04:01;95273.84;;;-4.73;92.35
73600;BME280;61877;48.246;9.220;2023-02-15T06:06:27;95277.66;;;-4.76;92.22
73600;BME280;61877;48.246;9.220;2023-02-15T06:08:52;95280.72;;;-4.79;92.34
73600;BME280;61877;48.246;9.220;2023-02-15T06:11:20;95281.16;;;-4.82;92.08
73600;BME280;61877;48.246;9.220;2023-02-15T06:13:45;95284.22;;;-4.85;92.19
73600;BME280;61877;48.246;9.220;2023-02-15T06:16:11;95280.56;;;-4.84;92.58
73600;BME280;61877;48.246;9.220;2023-02-15T06:18:37;95277.94;;;-4.84;92.25
73600;BME280;61877;48.246;9.220;2023-02-15T06:21:02;95279.78;;;-4.84;92.40
73600;BME280;61877;48.246;9.220;2023-02-15T06:23:28;95283.19;;;-4.84;92.26
73600;BME280;61877;48.246;9.220;2023-02-15T06:25:54;95286.81;;;-4.85;92.54
73600;BME280;61877;48.246;9.220;2023-02-15T06:28:22;95284.22;;;-4.85;92.37
73600;BME280;61877;48.246;9.220;2023-02-15T06:30:48;95289.81;;;-4.81;92.72
73600;BME280;61877;48.246;9.220;2023-02-15T06:33:15;95289.59;;;-4.80;92.41
73600;BME280;61877;48.246;9.220;2023-02-15T06:35:42;95289.97;;;-4.76;92.70
73600;BME280;61877;48.246;9.220;2023-02-15T06:38:07;95291.94;;;-4.72;93.04
73600;BME280;61877;48.246;9.220;2023-02-15T06:40:33;95293.13;;;-4.68;92.43
73600;BME280;61877;48.246;9.220;2023-02-15T06:42:58;95292.69;;;-4.65;91.85
73600;BME280;61877;48.246;9.220;2023-02-15T06:45:26;95301.94;;;-4.62;92.41
73600;BME280;61877;48.246;9.220;2023-02-15T06:47:52;95301.94;;;-4.62;92.00
73600;BME280;61877;48.246;9.220;2023-02-15T06:50:18;95296.69;;;-4.62;91.83
73600;BME280;61877;48.246;9.220;2023-02-15T06:52:43;95303.34;;;-4.60;92.06
73600;BME280;61877;48.246;9.220;2023-02-15T06:55:09;95310.75;;;-4.57;91.87
73600;BME280;61877;48.246;9.220;2023-02-15T06:57:35;95306.53;;;-4.58;91.68
73600;BME280;61877;48.246;9.220;2023-02-15T07:00:01;95307.28;;;-4.51;91.90
73600;BME280;61877;48.246;9.220;2023-02-15T07:02:31;95307.88;;;-4.49;91.29
73600;BME280;61877;48.246;9.220;2023-02-15T07:04:57;95302.56;;;-4.42;91.45
73600;BME280;61877;48.246;9.220;2023-02-15T07:07:22;95312.97;;;-4.36;90.87
73600;BME280;61877;48.246;9.220;2023-02-15T07:09:50;95312.13;;;-4.30;90.91
73600;BME280;61877;48.246;9.220;2023-02-15T07:12:17;95304.78;;;-4.21;91.27
73600;BME280;61877;48.246;9.220;2023-02-15T07:14:44;95303.25;;;-4.11;91.09
73600;BME280;61877;48.246;9.220;2023-02-15T07:17:10;95304.16;;;-3.99;91.22
73600;BME280;61877;48.246;9.220;2023-02-15T07:19:36;95299.22;;;-3.88;90.89
73600;BME280;61877;48.246;9.220;2023-02-15T07:22:05;95299.88;;;-3.75;91.06
73600;BME280;61877;48.246;9.220;2023-02-15T07:24:31;95304.00;;;-3.67;89.97
73600;BME280;61877;48.246;9.220;2023-02-15T07:26:59;95296.06;;;-3.61;89.66
73600;BME280;61877;48.246;9.220;2023-02-15T07:29:27;95305.81;;;-3.50;89.84
73600;BME280;61877;48.246;9.220;2023-02-15T07:31:53;95305.50;;;-3.42;89.49
73600;BME280;61877;48.246;9.220;2023-02-15T07:34:19;95305.78;;;-3.32;89.00
73600;BME280;61877;48.246;9.220;2023-02-15T07:36:47;95306.84;;;-3.21;89.19
73600;BME280;61877;48.246;9.220;2023-02-15T07:39:16;95310.19;;;-3.14;88.29
73600;BME280;61877;48.246;9.220;2023-02-15T07:41:42;95306.38;;;-3.00;88.57
73600;BME280;61877;48.246;9.220;2023-02-15T07:44:11;95305.00;;;-2.91;87.85
73600;BME280;61877;48.246;9.220;2023-02-15T07:46:40;95297.38;;;-2.81;87.88
73600;BME280;61877;48.246;9.220;2023-02-15T07:49:09;95291.22;;;-2.75;87.60
73600;BME280;61877;48.246;9.220;2023-02-15T07:51:36;95293.88;;;-2.64;87.73
73600;BME280;61877;48.246;9.220;2023-02-15T07:54:04;95292.50;;;-2.54;87.28
73600;BME280;61877;48.246;9.220;2023-02-15T07:56:30;95291.81;;;-2.50;86.35
73600;BME280;61877;48.246;9.220;2023-02-15T07:58:56;95287.50;;;-2.44;86.05
73600;BME280;61877;48.246;9.220;2023-02-15T08:01:24;95294.22;;;-2.37;86.61
73600;BME280;61877;48.246;9.220;2023-02-15T08:03:54;95294.03;;;-2.24;86.81
73600;BME280;61877;48.246;9.220;2023-02-15T08:06:21;95291.72;;;-2.09;86.74
73600;BME280;61877;48.246;9.220;2023-02-15T08:08:48;95290.13;;;-1.98;86.41
73600;BME280;61877;48.246;9.220;2023-02-15T08:11:19;95285.06;;;-1.88;86.27
73600;BME280;61877;48.246;9.220;2023-02-15T08:13:47;95281.41;;;-1.87;86.06
73600;BME280;61877;48.246;9.220;2023-02-15T08:16:15;95283.34;;;-1.71;86.45
73600;BME280;61877;48.246;9.220;2023-02-15T08:18:40;95270.94;;;-1.59;86.08
73600;BME280;61877;48.246;9.220;2023-02-15T08:21:07;95268.31;;;-1.48;86.06
73600;BME280;61877;48.246;9.220;2023-02-15T08:23:34;95275.69;;;-1.33;86.09
73600;BME280;61877;48.246;9.220;2023-02-15T08:25:59;95271.06;;;-1.26;85.54
73600;BME280;61877;48.246;9.220;2023-02-15T08:28:28;95271.34;;;-1.11;85.61
73600;BME280;61877;48.246;9.220;2023-02-15T08:30:54;95282.28;;;-1.02;85.46
73600;BME280;61877;48.246;9.220;2023-02-15T08:33:23;95273.22;;;-0.95;85.75
73600;BME280;61877;48.246;9.220;2023-02-15T08:35:50;95268.91;;;-0.84;85.66
73600;BME280;61877;48.246;9.220;2023-02-15T08:38:17;95266.53;;;-0.69;85.42
73600;BME280;61877;48.246;9.220;2023-02-15T08:40:42;95262.00;;;-0.57;84.94
73600;BME280;61877;48.246;9.220;2023-02-15T08:43:14;95271.66;;;-0.46;85.49
73600;BME280;61877;48.246;9.220;2023-02-15T08:45:41;95259.28;;;-0.29;84.82
73600;BME280;61877;48.246;9.220;2023-02-15T08:48:16;95258.38;;;-0.18;85.24
73600;BME280;61877;48.246;9.220;2023-02-15T08:50:57;95255.94;;;-0.03;85.42
73600;BME280;61877;48.246;9.220;2023-02-15T08:53:23;95256.47;;;0.16;84.23
73600;BME280;61877;48.246;9.220;2023-02-15T08:56:00;95254.53;;;0.28;83.66
73600;BME280;61877;48.246;9.220;2023-02-15T09:03:54;95247.97;;;0.78;83.26
73600;BME280;61877;48.246;9.220;2023-02-15T09:09:17;95238.03;;;1.12;82.01
73600;BME280;61877;48.246;9.220;2023-02-15T09:11:45;95238.72;;;1.29;82.08
73600;BME280;61877;48.246;9.220;2023-02-15T09:14:15;95243.38;;;1.49;81.54
73600;BME280;61877;48.246;9.220;2023-02-15T09:16:43;95235.81;;;1.62;81.80
73600;BME280;61877;48.246;9.220;2023-02-15T09:19:11;95234.59;;;1.80;81.49
73600;BME280;61877;48.246;9.220;2023-02-15T09:21:37;95232.84;;;1.95;81.02
73600;BME280;61877;48.246;9.220;2023-02-15T09:24:12;95229.53;;;2.15;80.51
73600;BME280;61877;48.246;9.220;2023-02-15T09:26:41;95224.59;;;2.33;79.39
73600;BME280;61877;48.246;9.220;2023-02-15T09:29:08;95228.09;;;2.54;79.03
73600;BME280;61877;48.246;9.220;2023-02-15T09:31:38;95224.75;;;2.74;78.39
73600;BME280;61877;48.246;9.220;2023-02-15T09:34:05;95225.03;;;2.92;78.42
73600;BME280;61877;48.246;9.220;2023-02-15T09:36:33;95226.97;;;3.12;78.08
73600;BME280;61877;48.246;9.220;2023-02-15T09:39:09;95226.19;;;3.36;78.39
73600;BME280;61877;48.246;9.220;2023-02-15T09:45:09;95224.81;;;4.14;76.15
73600;BME280;61877;48.246;9.220;2023-02-15T09:48:01;95215.38;;;4.52;74.90
73600;BME280;61877;48.246;9.220;2023-02-15T09:50:38;95217.56;;;4.93;73.73
73600;BME280;61877;48.246;9.220;2023-02-15T09:53:21;95212.22;;;5.42;71.08
73600;BME280;61877;48.246;9.220;2023-02-15T09:56:00;95219.94;;;5.72;71.17
73600;BME280;61877;48.246;9.220;2023-02-15T09:58:37;95223.28;;;6.21;68.54
73600;BME280;61877;48.246;9.220;2023-02-15T10:01:14;95213.97;;;6.66;67.77
73600;BME280;61877;48.246;9.220;2023-02-15T10:03:56;95211.22;;;6.95;66.78
73600;BME280;61877;48.246;9.220;2023-02-15T10:06:34;95210.41;;;7.50;64.60
73600;BME280;61877;48.246;9.220;2023-02-15T10:12:24;95202.06;;;8.48;63.15
73600;BME280;61877;48.246;9.220;2023-02-15T10:15:16;95198.81;;;8.78;60.97
73600;BME280;61877;48.246;9.220;2023-02-15T10:18:05;95196.31;;;9.08;62.20
73600;BME280;61877;48.246;9.220;2023-02-15T10:20:43;95193.28;;;9.24;59.53
73600;BME280;61877;48.246;9.220;2023-02-15T10:23:26;95182.56;;;9.81;58.02
73600;BME280;61877;48.246;9.220;2023-02-15T10:26:00;95191.56;;;10.38;56.62
73600;BME280;61877;48.246;9.220;2023-02-15T10:28:36;95178.47;;;10.76;56.17
73600;BME280;61877;48.246;9.220;2023-02-15T10:31:12;95180.22;;;10.80;56.59
73600;BME280;61877;48.246;9.220;2023-02-15T10:33:44;95172.44;;;11.78;53.06
73600;BME280;61877;48.246;9.220;2023-02-15T10:36:26;95163.16;;;12.38;51.68
73600;BME280;61877;48.246;9.220;2023-02-15T10:39:00;95163.81;;;13.02;50.07
73600;BME280;61877;48.246;9.220;2023-02-15T10:41:37;95163.78;;;13.52;48.80
73600;BME280;61877;48.246;9.220;2023-02-15T10:44:25;95165.91;;;13.87;47.10
73600;BME280;61877;48.246;9.220;2023-02-15T10:52:54;95161.13;;;15.34;42.55
73600;BME280;61877;48.246;9.220;2023-02-15T10:55:33;95152.94;;;16.10;41.45
73600;BME280;61877;48.246;9.220;2023-02-15T10:58:13;95153.78;;;15.98;41.74
73600;BME280;61877;48.246;9.220;2023-02-15T11:00:45;95148.94;;;16.62;40.35
73600;BME280;61877;48.246;9.220;2023-02-15T11:03:27;95146.38;;;16.54;39.53
73600;BME280;61877;48.246;9.220;2023-02-15T11:06:02;95136.97;;;17.29;37.94
73600;BME280;61877;48.246;9.220;2023-02-15T11:08:32;95129.19;;;17.81;36.66
73600;BME280;61877;48.246;9.220;2023-02-15T11:11:08;95129.75;;;18.29;35.85
73600;BME280;61877;48.246;9.220;2023-02-15T11:13:47;95120.00;;;18.69;34.00
73600;BME280;61877;48.246;9.220;2023-02-15T11:16:16;95119.06;;;19.30;32.96
73600;BME280;61877;48.246;9.220;2023-02-15T11:18:46;95117.09;;;19.56;32.25
73600;BME280;61877;48.246;9.220;2023-02-15T11:21:19;95116.44;;;19.96;31.70
73600;BME280;61877;48.246;9.220;2023-02-15T11:23:48;95106.50;;;20.14;31.31
73600;BME280;61877;48.246;9.220;2023-02-15T11:26:19;95104.19;;;20.49;30.51
73600;BME280;61877;48.246;9.220;2023-02-15T11:28:58;95102.16;;;21.33;29.02
73600;BME280;61877;48.246;9.220;2023-02-15T11:31:37;95097.69;;;21.72;28.77
73600;BME280;61877;48.246;9.220;2023-02-15T11:34:15;95090.81;;;22.00;27.95
73600;BME280;61877;48.246;9.220;2023-02-15T11:36:47;95086.63;;;22.37;28.10
73600;BME280;61877;48.246;9.220;2023-02-15T11:39:18;95082.41;;;22.82;26.69
73600;BME280;61877;48.246;9.220;2023-02-15T11:41:48;95085.00;;;23.91;25.76
73600;BME280;61877;48.246;9.220;2023-02-15T11:44:21;95078.44;;;23.57;23.29
73600;BME280;61877;48.246;9.220;2023-02-15T11:46:50;95080.34;;;23.77;24.73
73600;BME280;61877;48.246;9.220;2023-02-15T11:49:23;95078.50;;;23.11;24.34
73600;BME280;61877;48.246;9.220;2023-02-15T11:51:53;95074.50;;;23.68;24.67
73600;BME280;61877;48.246;9.220;2023-02-15T11:54:26;95074.84;;;23.84;23.72
73600;BME280;61877;48.246;9.220;2023-02-15T11:56:55;95068.59;;;24.60;23.34
73600;BME280;61877;48.246;9.220;2023-02-15T11:59:29;95068.97;;;24.69;23.19
73600;BME280;61877;48.246;9.220;2023-02-15T12:01:56;95063.72;;;25.29;23.09
73600;BME280;61877;48.246;9.220;2023-02-15T12:04:25;95055.44;;;26.63;22.22
73600;BME280;61877;48.246;9.220;2023-02-15T12:06:57;95062.44;;;26.15;21.68
73600;BME280;61877;48.246;9.220;2023-02-15T12:09:33;95063.28;;;24.93;23.73
73600;BME280;61877;48.246;9.220;2023-02-15T12:12:22;95060.53;;;26.08;21.75
73600;BME280;61877;48.246;9.220;2023-02-15T12:14:53;95049.84;;;26.44;21.01
73600;BME280;61877;48.246;9.220;2023-02-15T12:17:23;95048.50;;;26.55;20.90
73600;BME280;61877;48.246;9.220;2023-02-15T12:19:52;95049.81;;;26.17;21.31
73600;BME280;61877;48.246;9.220;2023-02-15T12:22:24;95044.81;;;26.39;21.17
73600;BME280;61877;48.246;9.220;2023-02-15T12:24:54;95043.78;;;26.83;20.20
73600;BME280;61877;48.246;9.220;2023-02-15T12:27:25;95040.84;;;27.39;19.56
73600;BME280;61877;48.246;9.220;2023-02-15T12:29:56;95041.09;;;27.48;18.74
73600;BME280;61877;48.246;9.220;2023-02-15T12:32:27;95033.59;;;27.92;19.35
73600;BME280;61877;48.246;9.220;2023-02-15T12:34:59;95036.69;;;28.13;19.12
73600;BME280;61877;48.246;9.220;2023-02-15T12:37:29;95035.44;;;28.69;18.48
73600;BME280;61877;48.246;9.220;2023-02-15T12:39:58;95030.81;;;28.98;18.41
73600;BME280;61877;48.246;9.220;2023-02-15T12:42:26;95023.97;;;29.80;16.82
73600;BME280;61877;48.246;9.220;2023-02-15T12:45:02;95025.97;;;29.35;16.61
73600;BME280;61877;48.246;9.220;2023-02-15T12:47:29;95025.47;;;29.97;17.47
73600;BME280;61877;48.246;9.220;2023-02-15T12:50:15;95018.44;;;30.21;16.06
73600;BME280;61877;48.246;9.220;2023-02-15T12:52:48;95009.53;;;31.51;13.70
73600;BME280;61877;48.246;9.220;2023-02-15T12:55:21;95008.78;;;32.16;13.13
73600;BME280;61877;48.246;9.220;2023-02-15T12:57:50;95004.66;;;31.99;13.78
73600;BME280;61877;48.246;9.220;2023-02-15T13:00:31;95002.88;;;32.05;13.99
73600;BME280;61877;48.246;9.220;2023-02-15T13:02:58;95001.00;;;32.32;11.98
73600;BME280;61877;48.246;9.220;2023-02-15T13:05:30;95005.88;;;32.41;12.33
73600;BME280;61877;48.246;9.220;2023-02-15T13:07:59;94999.06;;;32.11;12.80
73600;BME280;61877;48.246;9.220;2023-02-15T13:10:27;94997.88;;;31.44;14.45
73600;BME280;61877;48.246;9.220;2023-02-15T13:12:56;94992.91;;;30.80;13.67
73600;BME280;61877;48.246;9.220;2023-02-15T13:15:28;94990.56;;;31.72;12.79
73600;BME280;61877;48.246;9.220;2023-02-15T13:18:00;94985.38;;;31.39;12.19
73600;BME280;61877;48.246;9.220;2023-02-15T13:20:30;94985.59;;;30.61;14.77
73600;BME280;61877;48.246;9.220;2023-02-15T13:23:00;94984.84;;;31.32;13.43
73600;BME280;61877;48.246;9.220;2023-02-15T13:25:30;94978.91;;;31.98;12.57
73600;BME280;61877;48.246;9.220;2023-02-15T13:28:01;94980.34;;;32.55;12.35
73600;BME280;61877;48.246;9.220;2023-02-15T13:30:34;94977.19;;;33.68;11.36
73600;BME280;61877;48.246;9.220;2023-02-15T13:33:05;94977.03;;;33.81;11.74
73600;BME280;61877;48.246;9.220;2023-02-15T13:35:39;94970.56;;;31.77;13.82